Time;durP1;ratioP1;P1;durP2;ratioP2;P2;SDS_P1;SDS_P2;PMS_P1;PMS_P2;Temp;Humidity;BMP_temperature;BMP_pressure;BME280_temperature;BME280_humidity;BME280_pressure;Samples;Min_cycle;Max_cycle;Signal;HPM_P1;HPM_P2
2023/09/22 00:00:43;;;;;;;4.18;1.42;;;;;;;;;;5052139;28;20439;-82
2023/09/22 00:03:08;;;;;;;3.67;1.50;;;;;;;;;;5051743;28;20471;-81
2023/09/22 00:05:35;;;;;;;4.20;1.42;;;;;;;;;;5047830;28;20079;-82
2023/09/22 00:08:01;;;;;;;5.55;1.50;;;;;;;;;;5041924;28;20053;-81
2023/09/22 00:10:26;;;;;;;2.35;1.58;;;;;;;;;;5047504;28;20033;-80
2023/09/22 00:12:54;;;;;;;3.10;1.40;;;;;;;;;;5057617;28;20056;-82
2023/09/22 00:15:20;;;;;;;4.28;1.40;;;;;;;;;;5054947;28;20025;-83
2023/09/22 00:17:46;;;;;;;5.13;1.58;;;;;;;;;;5055869;28;20033;-82
2023/09/22 00:20:14;;;;;;;6.03;1.50;;;;;;;;;;5056800;28;20562;-81
2023/09/22 00:22:43;;;;;;;3.70;1.40;;;;;;;;;;5057232;28;20044;-83
2023/09/22 00:25:09;;;;;;;4.75;1.40;;;;;;;;;;5057496;28;20108;-82
2023/09/22 00:27:35;;;;;;;4.82;1.63;;;;;;;;;;5056865;28;20060;-83
2023/09/22 00:30:02;;;;;;;2.63;1.40;;;;;;;;;;5056711;28;20036;-82
2023/09/22 00:32:28;;;;;;;2.67;1.40;;;;;;;;;;5055605;28;20036;-83
2023/09/22 00:34:54;;;;;;;5.22;1.63;;;;;;;;;;5049974;28;20029;-83
2023/09/22 00:37:20;;;;;;;3.40;1.40;;;;;;;;;;5044026;28;20089;-81
2023/09/22 00:39:46;;;;;;;5.38;1.50;;;;;;;;;;5042686;28;20024;-81
2023/09/22 00:42:11;;;;;;;3.25;1.38;;;;;;;;;;5053982;28;20037;-81
2023/09/22 00:44:37;;;;;;;2.85;1.60;;;;;;;;;;5057157;28;20029;-81
2023/09/22 00:47:08;;;;;;;4.22;1.52;;;;;;;;;;5058525;28;20036;-82
2023/09/22 00:49:34;;;;;;;2.75;1.45;;;;;;;;;;5059048;28;20552;-82
2023/09/22 00:52:01;;;;;;;3.25;1.42;;;;;;;;;;5041384;28;20028;-81
2023/09/22 00:54:27;;;;;;;5.00;1.67;;;;;;;;;;5057390;28;20025;-81
2023/09/22 00:56:53;;;;;;;3.75;1.70;;;;;;;;;;5057297;28;20035;-81
2023/09/22 00:59:20;;;;;;;2.88;1.60;;;;;;;;;;5058250;28;20025;-82
2023/09/22 01:01:45;;;;;;;2.70;1.50;;;;;;;;;;5057969;28;20029;-81
2023/09/22 01:04:12;;;;;;;2.92;1.38;;;;;;;;;;5058975;28;20033;-81
2023/09/22 01:06:39;;;;;;;2.75;1.50;;;;;;;;;;5057780;28;20032;-80
2023/09/22 01:09:09;;;;;;;3.83;1.65;;;;;;;;;;5058457;28;20063;-81
2023/09/22 01:11:35;;;;;;;1.70;1.10;;;;;;;;;;5059204;28;20124;-81
2023/09/22 01:14:02;;;;;;;2.30;0.75;;;;;;;;;;5059012;28;20095;-81
2023/09/22 01:16:29;;;;;;;2.40;1.15;;;;;;;;;;5058465;28;20413;-80
2023/09/22 01:18:55;;;;;;;1.42;0.70;;;;;;;;;;5058501;28;20025;-80
2023/09/22 01:21:27;;;;;;;2.35;0.63;;;;;;;;;;5056515;28;20033;-80
2023/09/22 01:23:53;;;;;;;1.70;0.57;;;;;;;;;;5055383;28;20067;-80
2023/09/22 01:26:21;;;;;;;1.17;0.60;;;;;;;;;;5040300;28;20041;-80
2023/09/22 01:28:47;;;;;;;2.28;0.85;;;;;;;;;;5041204;28;20040;-81
2023/09/22 01:31:12;;;;;;;1.15;0.70;;;;;;;;;;5056565;28;20044;-83
2023/09/22 01:33:39;;;;;;;1.45;0.80;;;;;;;;;;5038513;28;20495;-80
2023/09/22 01:36:04;;;;;;;1.00;0.70;;;;;;;;;;5059416;28;20033;-80
2023/09/22 01:38:30;;;;;;;3.13;0.65;;;;;;;;;;5057701;28;20025;-81
2023/09/22 01:40:58;;;;;;;1.55;0.70;;;;;;;;;;5057348;28;20041;-80
2023/09/22 01:43:23;;;;;;;1.83;0.95;;;;;;;;;;5056532;28;20052;-80
2023/09/22 01:45:49;;;;;;;1.33;0.70;;;;;;;;;;5058361;28;20036;-80
2023/09/22 01:48:14;;;;;;;1.58;0.70;;;;;;;;;;5040311;28;20071;-82
2023/09/22 01:50:40;;;;;;;1.17;0.70;;;;;;;;;;5057057;28;20017;-80
2023/09/22 01:53:10;;;;;;;2.58;0.70;;;;;;;;;;5058037;28;20052;-80
2023/09/22 01:55:41;;;;;;;1.10;0.68;;;;;;;;;;5056931;28;20025;-80
2023/09/22 01:58:07;;;;;;;1.70;0.90;;;;;;;;;;5039450;28;20025;-80
2023/09/22 02:00:33;;;;;;;2.58;0.80;;;;;;;;;;5055798;28;20068;-82
2023/09/22 02:03:00;;;;;;;2.70;0.70;;;;;;;;;;5056254;28;20037;-80
2023/09/22 02:05:26;;;;;;;1.30;0.70;;;;;;;;;;5048766;28;20032;-81
2023/09/22 02:07:51;;;;;;;0.93;0.63;;;;;;;;;;5057866;28;20091;-81
2023/09/22 02:10:18;;;;;;;1.25;0.70;;;;;;;;;;5055876;28;20102;-81
2023/09/22 02:12:44;;;;;;;1.13;0.70;;;;;;;;;;5055468;28;20044;-82
2023/09/22 02:15:12;;;;;;;1.58;0.70;;;;;;;;;;5057241;28;20046;-81
2023/09/22 02:17:38;;;;;;;1.88;0.70;;;;;;;;;;5057214;28;20482;-81
2023/09/22 02:20:09;;;;;;;2.70;0.70;;;;;;;;;;5055799;28;20043;-81
2023/09/22 02:22:35;;;;;;;3.28;0.77;;;;;;;;;;5053670;28;20038;-80
2023/09/22 02:25:01;;;;;;;2.97;0.77;;;;;;;;;;5057321;28;20474;-81
2023/09/22 02:27:27;;;;;;;1.80;0.68;;;;;;;;;;5055824;28;20363;-81
2023/09/22 02:29:52;;;;;;;1.20;0.70;;;;;;;;;;5056478;28;20059;-81
2023/09/22 02:32:18;;;;;;;1.60;0.70;;;;;;;;;;5053912;28;20057;-81
2023/09/22 02:34:44;;;;;;;1.30;0.70;;;;;;;;;;5055576;28;20025;-82
2023/09/22 02:37:09;;;;;;;1.15;0.68;;;;;;;;;;5056934;28;20082;-80
2023/09/22 02:39:35;;;;;;;2.35;0.73;;;;;;;;;;5055843;28;20028;-80
2023/09/22 02:42:01;;;;;;;2.88;0.90;;;;;;;;;;5054094;28;20086;-81
2023/09/22 02:44:26;;;;;;;1.05;0.75;;;;;;;;;;5055034;28;20037;-82
2023/09/22 02:46:51;;;;;;;1.77;0.68;;;;;;;;;;5053371;28;20029;-82
2023/09/22 02:49:17;;;;;;;2.05;0.73;;;;;;;;;;5054123;28;20382;-81
2023/09/22 02:51:42;;;;;;;2.42;0.80;;;;;;;;;;5053514;28;20036;-82
2023/09/22 02:54:08;;;;;;;1.73;0.80;;;;;;;;;;5052817;28;20071;-81
2023/09/22 02:56:33;;;;;;;1.02;0.80;;;;;;;;;;5052812;28;20032;-82
2023/09/22 02:58:59;;;;;;;1.52;0.93;;;;;;;;;;5052455;28;20112;-82
2023/09/22 03:01:24;;;;;;;1.25;0.80;;;;;;;;;;5052585;28;20025;-81
2023/09/22 03:03:51;;;;;;;1.10;0.80;;;;;;;;;;5052510;28;20036;-83
2023/09/22 03:06:19;;;;;;;3.30;0.90;;;;;;;;;;5054244;28;20033;-82
2023/09/22 03:08:44;;;;;;;1.75;0.82;;;;;;;;;;5047750;28;20029;-81
2023/09/22 03:11:10;;;;;;;1.60;1.00;;;;;;;;;;5040293;28;20032;-82
2023/09/22 03:13:35;;;;;;;1.50;0.93;;;;;;;;;;5057909;28;20024;-82
2023/09/22 03:16:01;;;;;;;3.03;1.02;;;;;;;;;;5055117;28;20033;-81
2023/09/22 03:18:28;;;;;;;1.50;1.00;;;;;;;;;;5057228;28;20025;-80
2023/09/22 03:20:53;;;;;;;3.63;1.08;;;;;;;;;;5059408;28;20111;-81
2023/09/22 03:23:19;;;;;;;2.78;1.00;;;;;;;;;;5057648;28;20446;-81
2023/09/22 03:25:44;;;;;;;1.58;0.90;;;;;;;;;;5058964;28;20033;-80
2023/09/22 03:28:10;;;;;;;1.52;0.93;;;;;;;;;;5059074;28;20026;-81
2023/09/22 03:30:36;;;;;;;2.33;1.10;;;;;;;;;;5059301;28;20037;-81
2023/09/22 03:33:02;;;;;;;4.40;0.90;;;;;;;;;;5042306;28;20031;-81
2023/09/22 03:35:28;;;;;;;1.88;0.95;;;;;;;;;;5059451;28;20029;-81
2023/09/22 03:37:55;;;;;;;2.28;1.05;;;;;;;;;;5059204;28;20493;-81
2023/09/22 03:40:32;;;;;;;3.40;1.00;;;;;;;;;;5070488;28;20102;-80
2023/09/22 03:43:01;;;;;;;3.97;0.80;;;;;;;;;;5059553;28;20055;-80
2023/09/22 03:45:27;;;;;;;1.73;1.00;;;;;;;;;;5060095;28;20032;-80
2023/09/22 03:47:53;;;;;;;2.72;1.10;;;;;;;;;;5058594;28;20090;-81
2023/09/22 03:50:18;;;;;;;1.10;0.80;;;;;;;;;;5058326;28;20047;-81
2023/09/22 03:52:44;;;;;;;1.58;1.00;;;;;;;;;;5058679;28;20051;-81
2023/09/22 03:55:10;;;;;;;1.77;0.95;;;;;;;;;;5058729;28;20111;-81
2023/09/22 03:57:35;;;;;;;3.25;1.40;;;;;;;;;;5057906;28;20025;-80
2023/09/22 04:00:01;;;;;;;2.28;1.02;;;;;;;;;;5058200;28;20112;-80
2023/09/22 04:02:28;;;;;;;1.88;1.00;;;;;;;;;;5059059;28;20036;-80
2023/09/22 04:04:54;;;;;;;1.92;0.90;;;;;;;;;;5056107;28;20486;-81
2023/09/22 04:07:19;;;;;;;1.48;0.95;;;;;;;;;;5057207;28;20029;-82
2023/09/22 04:09:45;;;;;;;2.78;0.80;;;;;;;;;;5055440;28;20028;-83
2023/09/22 04:12:11;;;;;;;1.15;0.73;;;;;;;;;;5056123;28;20033;-83
2023/09/22 04:14:37;;;;;;;1.30;0.80;;;;;;;;;;5052853;28;20109;-82
2023/09/22 04:17:03;;;;;;;1.77;1.00;;;;;;;;;;5056558;28;20120;-81
2023/09/22 04:19:33;;;;;;;2.08;1.08;;;;;;;;;;5056422;28;20051;-81
2023/09/22 04:22:00;;;;;;;2.08;1.00;;;;;;;;;;5056723;28;20032;-81
2023/09/22 04:24:32;;;;;;;1.20;0.88;;;;;;;;;;5057466;28;20033;-80
2023/09/22 04:27:02;;;;;;;2.47;0.85;;;;;;;;;;5057182;28;20128;-80
2023/09/22 04:29:27;;;;;;;2.10;1.00;;;;;;;;;;5056952;28;20032;-81
2023/09/22 04:31:53;;;;;;;2.20;0.93;;;;;;;;;;5056641;28;20490;-82
2023/09/22 04:34:19;;;;;;;2.97;1.00;;;;;;;;;;5056748;28;20028;-81
2023/09/22 04:36:46;;;;;;;1.75;0.90;;;;;;;;;;5056934;28;20535;-81
2023/09/22 04:39:14;;;;;;;1.50;0.90;;;;;;;;;;5056672;28;20147;-80
2023/09/22 04:41:40;;;;;;;1.75;0.90;;;;;;;;;;5056024;28;20033;-80
2023/09/22 04:44:06;;;;;;;1.88;0.90;;;;;;;;;;5056292;28;20029;-83
2023/09/22 04:46:33;;;;;;;2.30;1.13;;;;;;;;;;5058099;28;20475;-82
2023/09/22 04:48:59;;;;;;;1.45;0.88;;;;;;;;;;5056784;28;20051;-81
2023/09/22 04:51:27;;;;;;;5.40;1.13;;;;;;;;;;5055705;28;20036;-83
2023/09/22 04:53:52;;;;;;;1.35;0.90;;;;;;;;;;5056437;28;20033;-83
2023/09/22 04:56:19;;;;;;;2.00;0.98;;;;;;;;;;5056746;28;20025;-81
2023/09/22 04:58:46;;;;;;;1.50;1.00;;;;;;;;;;5055476;28;20025;-81
2023/09/22 05:01:12;;;;;;;2.20;1.13;;;;;;;;;;5054606;28;20028;-81
2023/09/22 05:03:37;;;;;;;1.40;1.00;;;;;;;;;;5052398;28;20494;-80
2023/09/22 05:06:09;;;;;;;2.47;0.88;;;;;;;;;;5056248;28;20029;-81
2023/09/22 05:08:34;;;;;;;1.80;1.10;;;;;;;;;;5055942;28;20049;-81
2023/09/22 05:11:05;;;;;;;1.38;1.00;;;;;;;;;;5055578;28;20031;-82
2023/09/22 05:13:32;;;;;;;1.45;0.90;;;;;;;;;;5055481;28;20024;-82
2023/09/22 05:16:24;;;;;;;2.10;0.93;;;;;;;;;;5052012;28;20569;-81
2023/09/22 05:18:49;;;;;;;1.40;0.80;;;;;;;;;;5052491;28;20039;-82
2023/09/22 05:21:15;;;;;;;2.45;1.00;;;;;;;;;;5055533;28;20028;-83
2023/09/22 05:23:41;;;;;;;2.78;0.90;;;;;;;;;;5054192;28;20055;-82
2023/09/22 05:26:08;;;;;;;2.67;0.90;;;;;;;;;;5055399;28;20041;-82
2023/09/22 05:28:34;;;;;;;1.20;0.90;;;;;;;;;;5052453;28;20020;-81
2023/09/22 05:31:00;;;;;;;2.08;1.00;;;;;;;;;;5055678;28;20033;-82
2023/09/22 05:33:26;;;;;;;1.00;0.70;;;;;;;;;;5056187;28;20084;-82
2023/09/22 05:35:51;;;;;;;1.77;0.90;;;;;;;;;;5055546;28;20060;-82
2023/09/22 05:38:17;;;;;;;4.95;1.00;;;;;;;;;;5056134;28;20074;-81
2023/09/22 05:40:45;;;;;;;1.27;0.80;;;;;;;;;;5055742;28;20090;-81
2023/09/22 05:43:12;;;;;;;2.20;1.10;;;;;;;;;;5057175;28;20029;-80
2023/09/22 05:45:38;;;;;;;1.70;0.95;;;;;;;;;;5056873;28;20025;-80
2023/09/22 05:48:04;;;;;;;2.20;1.13;;;;;;;;;;5057411;28;20392;-80
2023/09/22 05:50:29;;;;;;;1.48;1.00;;;;;;;;;;5057233;28;20055;-80
2023/09/22 05:52:55;;;;;;;1.60;0.90;;;;;;;;;;5056730;28;20044;-80
2023/09/22 05:55:21;;;;;;;2.65;1.17;;;;;;;;;;5050607;28;20152;-82
2023/09/22 05:57:47;;;;;;;1.63;0.90;;;;;;;;;;5055111;28;20029;-82
2023/09/22 06:00:17;;;;;;;1.77;0.70;;;;;;;;;;5055321;28;20047;-82
2023/09/22 06:02:46;;;;;;;1.27;0.75;;;;;;;;;;5053933;28;20029;-83
2023/09/22 06:05:12;;;;;;;3.15;0.95;;;;;;;;;;5052599;28;20052;-80
2023/09/22 06:07:37;;;;;;;1.23;0.80;;;;;;;;;;5056430;28;20021;-80
2023/09/22 06:10:05;;;;;;;1.48;0.80;;;;;;;;;;5054785;28;20171;-82
2023/09/22 06:12:31;;;;;;;1.65;0.80;;;;;;;;;;5055735;28;20455;-82
2023/09/22 06:14:59;;;;;;;2.20;1.05;;;;;;;;;;5057254;28;20568;-83
2023/09/22 06:17:25;;;;;;;2.20;0.98;;;;;;;;;;5057153;28;20044;-82
2023/09/22 06:19:52;;;;;;;1.48;0.80;;;;;;;;;;5057349;28;20479;-83
2023/09/22 06:22:17;;;;;;;2.53;0.80;;;;;;;;;;5056355;28;20029;-80
2023/09/22 06:24:43;;;;;;;2.53;0.90;;;;;;;;;;5056635;28;20043;-81
2023/09/22 06:27:08;;;;;;;1.92;1.00;;;;;;;;;;5054814;28;20028;-81
2023/09/22 06:29:34;;;;;;;3.35;1.17;;;;;;;;;;5048540;28;20041;-80
2023/09/22 06:31:59;;;;;;;1.20;0.80;;;;;;;;;;5043936;28;20037;-81
2023/09/22 06:34:25;;;;;;;2.42;0.90;;;;;;;;;;5039737;28;20033;-83
2023/09/22 06:36:50;;;;;;;1.50;0.90;;;;;;;;;;5051919;28;20581;-83
2023/09/22 06:39:16;;;;;;;2.63;0.85;;;;;;;;;;5047664;28;20048;-80
2023/09/22 06:41:42;;;;;;;2.60;1.30;;;;;;;;;;5043569;28;20064;-83
2023/09/22 06:44:10;;;;;;;4.40;1.20;;;;;;;;;;5034165;28;20367;-80
2023/09/22 06:46:35;;;;;;;1.23;0.70;;;;;;;;;;5054085;28;20025;-81
2023/09/22 06:49:07;;;;;;;3.58;1.00;;;;;;;;;;5055115;28;20094;-80
2023/09/22 06:51:33;;;;;;;1.27;0.80;;;;;;;;;;5052939;28;20033;-80
2023/09/22 06:53:59;;;;;;;1.40;0.80;;;;;;;;;;5056079;28;20127;-82
2023/09/22 06:56:25;;;;;;;1.05;0.77;;;;;;;;;;5056768;28;20127;-82
2023/09/22 06:58:53;;;;;;;1.92;1.27;;;;;;;;;;5057057;28;20060;-82
2023/09/22 07:01:19;;;;;;;2.00;0.80;;;;;;;;;;5050699;28;20375;-80
2023/09/22 07:03:46;;;;;;;2.03;0.80;;;;;;;;;;5055905;28;20112;-81
2023/09/22 07:06:14;;;;;;;2.17;0.90;;;;;;;;;;5055308;28;20036;-80
2023/09/22 07:08:41;;;;;;;1.55;0.80;;;;;;;;;;5054075;28;20043;-80
2023/09/22 07:11:08;;;;;;;1.30;0.80;;;;;;;;;;5054888;28;20055;-81
2023/09/22 07:13:37;;;;;;;0.93;0.70;;;;;;;;;;5054138;28;20025;-82
2023/09/22 07:16:03;;;;;;;2.33;0.80;;;;;;;;;;5052598;28;20071;-83
2023/09/22 07:18:29;;;;;;;0.93;0.80;;;;;;;;;;5054910;28;20390;-83
2023/09/22 07:20:55;;;;;;;2.17;0.90;;;;;;;;;;5052605;28;20463;-82
2023/09/22 07:23:22;;;;;;;1.77;0.73;;;;;;;;;;5036476;28;20104;-82
2023/09/22 07:26:00;;;;;;;2.30;0.80;;;;;;;;;;5054202;28;20033;-80
2023/09/22 07:28:27;;;;;;;1.33;0.90;;;;;;;;;;5068087;28;20025;-79
2023/09/22 07:30:52;;;;;;;0.93;0.80;;;;;;;;;;5055776;28;20089;-80
2023/09/22 07:33:18;;;;;;;1.60;1.02;;;;;;;;;;5056198;28;20119;-80
2023/09/22 07:35:48;;;;;;;1.27;0.85;;;;;;;;;;5055467;28;20044;-82
2023/09/22 07:38:15;;;;;;;4.18;1.70;;;;;;;;;;5057537;28;20037;-81
2023/09/22 07:40:41;;;;;;;1.95;0.90;;;;;;;;;;5057065;28;20024;-83
2023/09/22 07:43:06;;;;;;;1.83;0.80;;;;;;;;;;5055478;28;20500;-81
2023/09/22 07:45:32;;;;;;;2.20;1.00;;;;;;;;;;5054959;28;20033;-80
2023/09/22 07:47:57;;;;;;;2.03;0.85;;;;;;;;;;5054561;28;20047;-81
2023/09/22 07:50:23;;;;;;;2.22;0.93;;;;;;;;;;5058066;28;20029;-81
2023/09/22 07:52:49;;;;;;;2.63;0.88;;;;;;;;;;5064065;28;20027;-81
2023/09/22 07:55:15;;;;;;;1.92;0.82;;;;;;;;;;5058800;28;20033;-82
2023/09/22 07:57:41;;;;;;;2.30;0.90;;;;;;;;;;5060945;28;20039;-82
2023/09/22 08:00:10;;;;;;;3.17;0.82;;;;;;;;;;5058704;28;20029;-82
2023/09/22 08:02:38;;;;;;;1.73;0.90;;;;;;;;;;5054102;28;20079;-81
2023/09/22 08:05:04;;;;;;;3.53;0.90;;;;;;;;;;5057566;28;20037;-80
2023/09/22 08:07:30;;;;;;;2.03;1.00;;;;;;;;;;5054509;28;20112;-81
2023/09/22 08:09:55;;;;;;;2.20;0.80;;;;;;;;;;5054381;28;20034;-80
2023/09/22 08:12:20;;;;;;;2.92;1.00;;;;;;;;;;5057231;28;20472;-81
2023/09/22 08:14:46;;;;;;;2.88;0.88;;;;;;;;;;5060259;28;20090;-83
2023/09/22 08:17:12;;;;;;;2.20;0.90;;;;;;;;;;5059032;28;20378;-83
2023/09/22 08:19:37;;;;;;;1.23;0.80;;;;;;;;;;5057474;28;20078;-81
2023/09/22 08:22:03;;;;;;;1.00;0.75;;;;;;;;;;5057591;28;20036;-80
2023/09/22 08:24:28;;;;;;;2.67;0.90;;;;;;;;;;5059906;28;20048;-79
2023/09/22 08:26:55;;;;;;;2.08;0.77;;;;;;;;;;5055776;28;20028;-81
2023/09/22 08:29:22;;;;;;;0.88;0.60;;;;;;;;;;5054061;28;20025;-80
2023/09/22 08:31:48;;;;;;;1.80;0.90;;;;;;;;;;5055152;28;20394;-83
2023/09/22 08:34:14;;;;;;;1.85;1.10;;;;;;;;;;5050951;28;20029;-83
2023/09/22 08:36:39;;;;;;;1.20;0.70;;;;;;;;;;5052600;28;20068;-83
2023/09/22 08:39:07;;;;;;;1.65;0.77;;;;;;;;;;5052737;28;20029;-81
2023/09/22 08:41:37;;;;;;;1.50;0.70;;;;;;;;;;5049425;28;20073;-81
2023/09/22 08:44:05;;;;;;;1.20;0.88;;;;;;;;;;5054788;28;20033;-81
2023/09/22 08:46:33;;;;;;;1.75;0.90;;;;;;;;;;5054541;28;20033;-81
2023/09/22 08:48:58;;;;;;;1.13;0.80;;;;;;;;;;5053249;28;20533;-81
2023/09/22 08:51:24;;;;;;;3.45;0.90;;;;;;;;;;5051426;28;20040;-84
2023/09/22 08:53:53;;;;;;;1.25;0.85;;;;;;;;;;5054119;28;20025;-83
2023/09/22 08:56:21;;;;;;;3.65;1.00;;;;;;;;;;5050349;28;20032;-83
2023/09/22 08:58:46;;;;;;;1.77;0.90;;;;;;;;;;5054551;28;20017;-83
2023/09/22 09:01:12;;;;;;;1.83;0.95;;;;;;;;;;5047995;28;20056;-83
2023/09/22 09:03:38;;;;;;;3.00;1.08;;;;;;;;;;5050302;28;20057;-82
2023/09/22 09:06:06;;;;;;;2.08;0.90;;;;;;;;;;5050601;28;20058;-81
2023/09/22 09:08:34;;;;;;;1.05;0.80;;;;;;;;;;5043589;28;20121;-81
2023/09/22 09:11:08;;;;;;;1.70;0.85;;;;;;;;;;5053571;28;20029;-81
2023/09/22 09:13:35;;;;;;;1.38;0.80;;;;;;;;;;5052613;28;20072;-82
2023/09/22 09:16:09;;;;;;;1.35;0.90;;;;;;;;;;5052699;28;20040;-84
2023/09/22 09:18:35;;;;;;;2.35;0.90;;;;;;;;;;5053809;28;20119;-84
2023/09/22 09:21:14;;;;;;;1.70;0.75;;;;;;;;;;5053479;28;20741;-81
2023/09/22 09:23:58;;;;;;;1.63;0.88;;;;;;;;;;5055594;28;20105;-84
2023/09/22 09:26:26;;;;;;;2.20;0.90;;;;;;;;;;5036793;28;20063;-83
2023/09/22 09:28:53;;;;;;;3.00;0.98;;;;;;;;;;5053632;28;20036;-83
2023/09/22 09:31:18;;;;;;;1.23;0.80;;;;;;;;;;5054131;28;20033;-80
2023/09/22 09:33:53;;;;;;;1.90;0.75;;;;;;;;;;5053747;28;20068;-81
2023/09/22 09:36:19;;;;;;;2.20;0.90;;;;;;;;;;5051836;28;20963;-81
2023/09/22 09:38:44;;;;;;;1.33;0.70;;;;;;;;;;5054574;28;20120;-82
2023/09/22 09:41:11;;;;;;;1.42;0.80;;;;;;;;;;5052417;28;20470;-81
2023/09/22 09:43:44;;;;;;;1.35;0.77;;;;;;;;;;5054632;28;20036;-83
2023/09/22 09:46:13;;;;;;;1.85;0.85;;;;;;;;;;5053451;28;20444;-83
2023/09/22 09:48:39;;;;;;;1.20;0.80;;;;;;;;;;5053198;28;20037;-82
2023/09/22 09:51:11;;;;;;;2.10;1.08;;;;;;;;;;5052876;28;20466;-83
2023/09/22 09:53:43;;;;;;;1.23;0.80;;;;;;;;;;5041929;28;20086;-84
2023/09/22 09:56:13;;;;;;;1.00;0.80;;;;;;;;;;5048806;28;20033;-83
2023/09/22 09:58:39;;;;;;;1.95;0.82;;;;;;;;;;5051807;28;20036;-83
2023/09/22 10:01:06;;;;;;;0.93;0.80;;;;;;;;;;5053459;28;20045;-83
2023/09/22 10:03:33;;;;;;;0.82;0.60;;;;;;;;;;5055099;28;20029;-81
2023/09/22 10:06:02;;;;;;;1.58;0.70;;;;;;;;;;5049395;28;20036;-81
2023/09/22 10:08:28;;;;;;;2.85;0.70;;;;;;;;;;5055043;28;20029;-82
2023/09/22 10:10:59;;;;;;;0.90;0.70;;;;;;;;;;5052886;28;20044;-84
2023/09/22 10:13:24;;;;;;;1.83;0.68;;;;;;;;;;5044223;28;20036;-85
2023/09/22 10:15:53;;;;;;;1.42;0.70;;;;;;;;;;5054692;28;20029;-84
2023/09/22 10:18:19;;;;;;;1.98;0.80;;;;;;;;;;5053064;28;20560;-84
2023/09/22 10:20:46;;;;;;;1.13;0.70;;;;;;;;;;5052662;28;20029;-82
2023/09/22 10:23:27;;;;;;;0.77;0.60;;;;;;;;;;5055822;28;20031;-82
2023/09/22 10:26:05;;;;;;;1.02;0.60;;;;;;;;;;5053403;28;20115;-85
2023/09/22 10:28:31;;;;;;;1.88;0.80;;;;;;;;;;5055073;28;20044;-81
2023/09/22 10:30:59;;;;;;;0.60;0.60;;;;;;;;;;5055149;28;20106;-81
2023/09/22 10:33:30;;;;;;;1.08;0.65;;;;;;;;;;5053547;28;20044;-81
2023/09/22 10:35:56;;;;;;;0.80;0.70;;;;;;;;;;5052784;28;20056;-82
2023/09/22 10:38:22;;;;;;;1.40;0.80;;;;;;;;;;5043266;28;20045;-81
2023/09/22 10:41:06;;;;;;;1.75;0.80;;;;;;;;;;5036107;28;20405;-84
2023/09/22 10:43:32;;;;;;;3.85;0.80;;;;;;;;;;5050475;28;20044;-84
2023/09/22 10:45:59;;;;;;;0.93;0.70;;;;;;;;;;5049637;28;20041;-85
2023/09/22 10:48:35;;;;;;;0.93;0.60;;;;;;;;;;5044484;28;20033;-84
2023/09/22 10:51:02;;;;;;;1.02;0.70;;;;;;;;;;5053999;28;20044;-82
2023/09/22 10:53:29;;;;;;;1.27;0.70;;;;;;;;;;5055712;28;20032;-86
2023/09/22 10:55:58;;;;;;;1.42;0.70;;;;;;;;;;5053967;28;20083;-81
2023/09/22 10:58:26;;;;;;;1.42;0.70;;;;;;;;;;5055355;28;20074;-82
2023/09/22 11:01:00;;;;;;;1.70;0.70;;;;;;;;;;5056903;28;20064;-81
2023/09/22 11:03:26;;;;;;;2.40;0.90;;;;;;;;;;5059367;28;20037;-86
2023/09/22 11:06:08;;;;;;;1.50;0.80;;;;;;;;;;5055322;28;20040;-82
2023/09/22 11:08:34;;;;;;;2.28;0.85;;;;;;;;;;5052755;28;20032;-81
2023/09/22 11:11:00;;;;;;;2.25;0.85;;;;;;;;;;5053904;28;20064;-82
2023/09/22 11:13:27;;;;;;;4.03;0.80;;;;;;;;;;5052722;28;20060;-82
2023/09/22 11:15:56;;;;;;;1.45;0.90;;;;;;;;;;5053087;28;20028;-83
2023/09/22 11:18:29;;;;;;;1.38;0.70;;;;;;;;;;5052487;28;20033;-84
2023/09/22 11:21:08;;;;;;;2.42;0.82;;;;;;;;;;5054800;28;20114;-83
2023/09/22 11:23:35;;;;;;;3.42;0.93;;;;;;;;;;5052656;28;20029;-82
2023/09/22 11:26:16;;;;;;;1.98;0.80;;;;;;;;;;5039285;28;20056;-82
2023/09/22 11:28:44;;;;;;;1.17;0.80;;;;;;;;;;5051385;28;20037;-82
2023/09/22 11:31:13;;;;;;;1.40;0.75;;;;;;;;;;5039262;28;20482;-82
2023/09/22 11:33:39;;;;;;;1.10;0.70;;;;;;;;;;5056648;28;20108;-82
2023/09/22 11:36:07;;;;;;;1.75;0.70;;;;;;;;;;5058377;28;20040;-85
2023/09/22 11:38:34;;;;;;;1.50;0.90;;;;;;;;;;5056512;28;20075;-82
2023/09/22 11:41:07;;;;;;;1.38;0.90;;;;;;;;;;5058156;28;20043;-82
2023/09/22 11:43:36;;;;;;;2.03;1.10;;;;;;;;;;5056743;28;20068;-83
2023/09/22 11:46:13;;;;;;;1.60;0.90;;;;;;;;;;5056196;28;20029;-84
2023/09/22 11:49:05;;;;;;;1.40;0.90;;;;;;;;;;5056982;28;20078;-84
2023/09/22 11:51:40;;;;;;;4.90;1.10;;;;;;;;;;5047950;28;20079;-82
2023/09/22 11:54:07;;;;;;;3.15;1.10;;;;;;;;;;5040349;28;20098;-81
2023/09/22 11:56:33;;;;;;;1.67;0.90;;;;;;;;;;5056959;28;20044;-83
2023/09/22 11:59:31;;;;;;;1.98;1.00;;;;;;;;;;5057423;28;20028;-82
2023/09/22 12:01:57;;;;;;;1.48;0.93;;;;;;;;;;5052089;28;20085;-82
2023/09/22 12:04:23;;;;;;;1.67;1.17;;;;;;;;;;5057614;28;20056;-84
2023/09/22 12:06:49;;;;;;;4.00;1.10;;;;;;;;;;5056557;28;20033;-84
2023/09/22 12:09:15;;;;;;;2.03;0.90;;;;;;;;;;5058396;28;20045;-83
2023/09/22 12:11:42;;;;;;;1.10;0.80;;;;;;;;;;5058478;28;20032;-84
2023/09/22 12:14:08;;;;;;;2.05;0.90;;;;;;;;;;5049269;28;20060;-83
2023/09/22 12:16:34;;;;;;;1.23;0.77;;;;;;;;;;5041664;28;20061;-84
2023/09/22 12:19:00;;;;;;;2.15;0.70;;;;;;;;;;5052663;28;20045;-82
2023/09/22 12:21:27;;;;;;;1.17;0.70;;;;;;;;;;5057404;28;20037;-84
2023/09/22 12:23:53;;;;;;;1.60;0.75;;;;;;;;;;5057636;28;20044;-83
2023/09/22 12:26:18;;;;;;;3.58;0.98;;;;;;;;;;5057104;28;20075;-84
2023/09/22 12:28:44;;;;;;;1.80;0.90;;;;;;;;;;5058244;28;20029;-82
2023/09/22 12:31:10;;;;;;;0.90;0.65;;;;;;;;;;5058266;28;20040;-81
2023/09/22 12:33:37;;;;;;;1.70;1.00;;;;;;;;;;5055003;28;20037;-84
2023/09/22 12:36:03;;;;;;;1.50;1.00;;;;;;;;;;5056337;28;20671;-81
2023/09/22 12:38:28;;;;;;;2.47;0.90;;;;;;;;;;5056846;28;20120;-82
2023/09/22 12:40:54;;;;;;;1.65;0.82;;;;;;;;;;5055860;28;20043;-83
2023/09/22 12:43:19;;;;;;;1.67;1.00;;;;;;;;;;5055892;28;20025;-83
2023/09/22 12:45:45;;;;;;;1.52;0.85;;;;;;;;;;5054945;28;20055;-82
2023/09/22 12:48:11;;;;;;;2.05;0.70;;;;;;;;;;5056230;28;20057;-83
2023/09/22 12:50:39;;;;;;;1.67;0.80;;;;;;;;;;5054877;28;20036;-82
2023/09/22 12:53:05;;;;;;;0.90;0.73;;;;;;;;;;5056484;28;20041;-81
2023/09/22 12:55:32;;;;;;;1.55;0.80;;;;;;;;;;5057074;28;20557;-83
2023/09/22 12:57:58;;;;;;;2.20;0.90;;;;;;;;;;5055026;28;20094;-84
2023/09/22 13:00:24;;;;;;;1.38;0.80;;;;;;;;;;5055527;28;20029;-83
2023/09/22 13:02:49;;;;;;;2.35;0.80;;;;;;;;;;5054417;28;20052;-84
2023/09/22 13:05:15;;;;;;;1.33;0.82;;;;;;;;;;5056434;28;20040;-83
2023/09/22 13:07:41;;;;;;;1.67;0.90;;;;;;;;;;5055655;28;20486;-83
2023/09/22 13:10:08;;;;;;;2.85;1.35;;;;;;;;;;5055651;28;20045;-83
2023/09/22 13:12:36;;;;;;;3.58;0.93;;;;;;;;;;5053989;28;20059;-81
2023/09/22 13:15:02;;;;;;;0.98;0.65;;;;;;;;;;5051911;28;20476;-83
2023/09/22 13:17:27;;;;;;;2.17;0.90;;;;;;;;;;5055012;28;20120;-82
2023/09/22 13:19:53;;;;;;;1.85;0.80;;;;;;;;;;5054120;28;20051;-83
2023/09/22 13:22:21;;;;;;;1.75;1.00;;;;;;;;;;5056019;28;20031;-84
2023/09/22 13:24:48;;;;;;;1.25;0.80;;;;;;;;;;5055829;28;20037;-83
2023/09/22 13:27:13;;;;;;;2.72;0.90;;;;;;;;;;5055314;28;20045;-83
2023/09/22 13:29:39;;;;;;;3.63;1.88;;;;;;;;;;5054203;28;20037;-82
2023/09/22 13:32:06;;;;;;;0.95;0.70;;;;;;;;;;5053847;28;20045;-84
2023/09/22 13:34:34;;;;;;;1.20;0.80;;;;;;;;;;5053724;28;20041;-82
2023/09/22 13:37:01;;;;;;;1.48;0.90;;;;;;;;;;5054431;28;20060;-82
2023/09/22 13:39:26;;;;;;;1.30;0.90;;;;;;;;;;5054055;28;20124;-83
2023/09/22 13:41:52;;;;;;;1.30;0.80;;;;;;;;;;5036456;28;20071;-81
2023/09/22 13:44:17;;;;;;;1.27;0.63;;;;;;;;;;5053815;28;20486;-83
2023/09/22 13:46:45;;;;;;;2.10;0.90;;;;;;;;;;5048494;28;20061;-81
2023/09/22 13:49:11;;;;;;;1.13;0.80;;;;;;;;;;5037101;28;20128;-83
2023/09/22 13:51:37;;;;;;;2.13;0.90;;;;;;;;;;5054508;28;20576;-83
2023/09/22 13:54:04;;;;;;;1.70;0.95;;;;;;;;;;5052111;28;20061;-83
2023/09/22 13:56:30;;;;;;;1.40;0.73;;;;;;;;;;5053420;28;20040;-85
2023/09/22 13:58:56;;;;;;;4.88;2.30;;;;;;;;;;5054726;28;20065;-83
2023/09/22 14:01:22;;;;;;;2.30;1.20;;;;;;;;;;5053321;28;20096;-84
2023/09/22 14:03:48;;;;;;;5.95;1.13;;;;;;;;;;5040630;28;20132;-83
2023/09/22 14:06:15;;;;;;;3.13;0.98;;;;;;;;;;5050159;28;20036;-84
2023/09/22 14:08:41;;;;;;;1.85;0.90;;;;;;;;;;5054859;28;20609;-83
2023/09/22 14:11:10;;;;;;;2.20;1.00;;;;;;;;;;5051526;28;20047;-85
2023/09/22 14:13:36;;;;;;;1.42;0.85;;;;;;;;;;5055912;28;20040;-83
2023/09/22 14:16:03;;;;;;;1.65;1.00;;;;;;;;;;5055029;28;20533;-86
2023/09/22 14:18:28;;;;;;;1.25;0.85;;;;;;;;;;5051873;28;20081;-84
2023/09/22 14:20:54;;;;;;;1.40;1.00;;;;;;;;;;5053935;28;20436;-85
2023/09/22 14:23:19;;;;;;;1.55;0.95;;;;;;;;;;5053851;28;20037;-84
2023/09/22 14:25:47;;;;;;;1.92;0.90;;;;;;;;;;5057886;28;20052;-84
2023/09/22 14:28:13;;;;;;;1.75;0.80;;;;;;;;;;5059599;28;20041;-83
2023/09/22 14:30:39;;;;;;;1.83;0.93;;;;;;;;;;5058082;28;20037;-84
2023/09/22 14:33:05;;;;;;;1.23;0.60;;;;;;;;;;5055671;28;20068;-83
2023/09/22 14:35:30;;;;;;;1.80;1.00;;;;;;;;;;5052064;28;20082;-84
2023/09/22 14:37:56;;;;;;;1.55;0.80;;;;;;;;;;5035293;28;20051;-82
2023/09/22 14:40:22;;;;;;;2.83;1.10;;;;;;;;;;5060634;28;20033;-81
2023/09/22 14:42:48;;;;;;;1.08;0.88;;;;;;;;;;5052437;28;20512;-84